createdAt,value
2023-03-08T00:02:46.036Z,2.47
2023-03-08T00:08:08.712Z,2.83
2023-03-08T00:13:31.235Z,2.70
2023-03-08T00:18:53.694Z,2.40
2023-03-08T00:24:16.933Z,2.10
2023-03-08T00:29:39.212Z,2.60
2023-03-08T00:35:01.741Z,2.47
2023-03-08T00:40:24.315Z,2.30
2023-03-08T00:45:48.752Z,2.23
2023-03-08T00:51:15.289Z,2.13
2023-03-08T00:56:37.661Z,2.80
2023-03-08T01:02:01.132Z,1.93
2023-03-08T01:07:26.778Z,1.93
2023-03-08T01:12:49.274Z,2.07
2023-03-08T01:18:12.093Z,2.17
2023-03-08T01:23:34.299Z,2.53
2023-03-08T01:28:57.725Z,1.93
2023-03-08T01:34:20.921Z,2.50
2023-03-08T01:39:44.037Z,2.33
2023-03-08T01:45:27.215Z,1.83
2023-03-08T01:50:49.761Z,2.73
2023-03-08T01:56:15.608Z,2.73
2023-03-08T02:01:39.119Z,2.67
2023-03-08T02:07:01.781Z,3.07
2023-03-08T02:12:24.259Z,3.10
2023-03-08T02:17:47.136Z,2.50
2023-03-08T02:23:11.753Z,2.70
2023-03-08T02:28:36.733Z,3.43
2023-03-08T02:33:59.154Z,3.20
2023-03-08T02:39:22.568Z,3.50
2023-03-08T02:44:44.799Z,3.50
2023-03-08T02:50:07.795Z,3.87
2023-03-08T02:55:30.561Z,3.83
2023-03-08T03:00:52.902Z,4.43
2023-03-08T03:06:18.514Z,4.77
2023-03-08T03:11:43.750Z,4.20
2023-03-08T03:17:06.464Z,4.33
2023-03-08T03:22:29.099Z,5.17
2023-03-08T03:27:53.902Z,4.83
2023-03-08T03:33:16.409Z,5.13
2023-03-08T03:38:40.015Z,5.30
2023-03-08T03:44:02.890Z,5.87
2023-03-08T03:49:25.884Z,5.77
2023-03-08T03:54:48.522Z,5.77
2023-03-08T04:00:11.975Z,5.50
2023-03-08T04:05:37.692Z,5.80
2023-03-08T04:11:01.204Z,6.00
2023-03-08T04:16:29.810Z,6.67
2023-03-08T04:21:54.945Z,7.00
2023-03-08T04:27:20.236Z,6.50
2023-03-08T04:32:42.798Z,7.37
2023-03-08T04:38:05.713Z,6.40
2023-03-08T04:43:30.095Z,6.10
2023-03-08T04:48:55.663Z,7.00
2023-03-08T04:54:20.624Z,6.93
2023-03-08T04:59:49.257Z,6.53
2023-03-08T05:05:11.968Z,7.17
2023-03-08T05:10:34.743Z,6.87
2023-03-08T05:15:57.976Z,6.53
2023-03-08T05:21:22.776Z,6.23
2023-03-08T05:26:50.028Z,6.13
2023-03-08T05:32:14.212Z,6.13
2023-03-08T05:37:37.354Z,6.20
2023-03-08T05:43:00.617Z,7.17
2023-03-08T05:48:23.991Z,6.47
2023-03-08T05:53:46.922Z,5.93
2023-03-08T05:59:11.750Z,6.27
2023-03-08T06:04:34.220Z,6.03
2023-03-08T06:09:57.170Z,6.47
2023-03-08T06:15:20.341Z,6.30
2023-03-08T06:20:42.724Z,6.10
2023-03-08T06:26:06.099Z,6.30
2023-03-08T06:31:31.433Z,5.63
2023-03-08T06:36:56.788Z,5.80
2023-03-08T06:42:25.782Z,5.43
2023-03-08T06:47:53.988Z,6.03
2023-03-08T06:53:16.656Z,5.97
2023-03-08T06:58:50.089Z,5.00
2023-03-08T07:04:12.555Z,5.13
2023-03-08T07:09:34.880Z,5.33
2023-03-08T07:14:57.432Z,5.37
2023-03-08T07:20:21.274Z,5.43
2023-03-08T07:25:43.842Z,6.40
2023-03-08T07:31:06.376Z,5.93
2023-03-08T07:36:28.617Z,7.00
2023-03-08T07:41:51.342Z,7.17
2023-03-08T07:47:13.741Z,5.93
2023-03-08T07:52:36.076Z,7.00
2023-03-08T07:57:58.499Z,5.93
2023-03-08T08:03:21.750Z,6.47
2023-03-08T08:08:44.042Z,5.13
2023-03-08T08:14:06.321Z,6.57
2023-03-08T08:19:28.924Z,5.20
2023-03-08T08:24:51.147Z,6.10
2023-03-08T08:30:14.920Z,5.47
2023-03-08T08:35:43.346Z,6.83
2023-03-08T08:41:08.367Z,6.57
2023-03-08T08:46:34.158Z,5.93
2023-03-08T08:51:56.307Z,6.00
2023-03-08T08:57:18.520Z,6.37
2023-03-08T09:02:41.126Z,5.80
2023-03-08T09:08:03.811Z,5.63
2023-03-08T09:13:26.589Z,6.03
2023-03-08T09:18:49.248Z,5.37
2023-03-08T09:24:12.495Z,5.30
2023-03-08T09:29:36.641Z,5.60
2023-03-08T09:34:59.139Z,4.27
2023-03-08T09:40:27.061Z,5.03
2023-03-08T09:45:53.352Z,4.67
2023-03-08T09:51:19.206Z,4.10
2023-03-08T09:56:53.962Z,4.37
2023-03-08T10:02:31.627Z,4.50
2023-03-08T10:08:14.713Z,5.00
2023-03-08T10:13:47.634Z,4.50
2023-03-08T10:19:18.969Z,3.03
2023-03-08T10:24:52.409Z,3.97
2023-03-08T10:30:20.042Z,4.20
2023-03-08T10:36:04.681Z,4.17
2023-03-08T10:41:29.699Z,4.43
2023-03-08T10:46:51.942Z,3.70
2023-03-08T10:52:26.046Z,3.20
2023-03-08T10:57:50.607Z,3.23
2023-03-08T11:03:21.500Z,3.00
2023-03-08T11:09:00.032Z,2.70
2023-03-08T11:14:22.768Z,2.90
2023-03-08T11:20:00.207Z,3.10
2023-03-08T11:25:34.533Z,3.20
2023-03-08T11:31:15.168Z,3.07
2023-03-08T11:36:50.805Z,2.70
2023-03-08T11:42:22.438Z,3.40
2023-03-08T11:48:11.395Z,3.00
2023-03-08T11:54:03.441Z,3.00
2023-03-08T11:59:42.426Z,3.20
2023-03-08T12:05:17.776Z,2.67
2023-03-08T12:10:51.040Z,2.60
2023-03-08T12:16:26.848Z,3.20
2023-03-08T12:21:58.106Z,2.27
2023-03-08T12:27:35.834Z,2.60
2023-03-08T12:33:01.736Z,3.07
2023-03-08T12:38:24.131Z,3.00
2023-03-08T12:43:46.724Z,2.80
2023-03-08T12:49:25.248Z,3.60
2023-03-08T12:55:06.063Z,3.27
2023-03-08T13:00:37.470Z,3.03
2023-03-08T13:06:00.084Z,2.97
2023-03-08T13:11:25.182Z,2.50
2023-03-08T13:16:48.122Z,3.20
2023-03-08T13:22:18.663Z,2.87
2023-03-08T13:28:07.788Z,2.47
2023-03-08T13:33:43.222Z,2.53
2023-03-08T13:39:17.892Z,3.00
2023-03-08T13:44:40.365Z,2.43
2023-03-08T13:50:03.087Z,3.17
2023-03-08T13:55:32.449Z,3.53
2023-03-08T14:01:09.619Z,3.43
2023-03-08T14:06:35.782Z,3.57
2023-03-08T14:12:05.364Z,3.80
2023-03-08T14:17:30.653Z,4.17
2023-03-08T14:22:55.299Z,4.00
2023-03-08T14:28:41.343Z,3.87
2023-03-08T14:34:04.977Z,3.57
2023-03-08T14:39:29.945Z,5.10
2023-03-08T14:45:01.864Z,4.20
2023-03-08T14:50:33.610Z,4.03
2023-03-08T14:55:57.557Z,3.80
2023-03-08T15:01:27.813Z,4.13
2023-03-08T15:06:52.764Z,3.90
2023-03-08T15:12:15.448Z,3.80
2023-03-08T15:17:37.894Z,4.23
2023-03-08T15:23:05.405Z,4.23
2023-03-08T15:28:27.780Z,4.63
2023-03-08T15:33:50.403Z,4.97
2023-03-08T15:39:13.049Z,5.10
2023-03-08T15:44:35.834Z,5.03
2023-03-08T15:49:58.330Z,5.53
2023-03-08T15:55:21.346Z,4.40
2023-03-08T16:00:44.086Z,4.83
2023-03-08T16:06:15.283Z,4.43
2023-03-08T16:11:37.839Z,4.37
2023-03-08T16:17:00.248Z,4.60
2023-03-08T16:22:23.292Z,4.87
2023-03-08T16:27:45.773Z,4.90
2023-03-08T16:33:43.235Z,4.97
2023-03-08T16:39:06.885Z,4.73
2023-03-08T16:44:30.933Z,5.27
2023-03-08T16:49:54.068Z,4.70
2023-03-08T16:55:16.630Z,4.40
2023-03-08T17:00:42.283Z,4.97
2023-03-08T17:06:08.764Z,4.50
2023-03-08T17:11:34.430Z,4.70
2023-03-08T17:16:56.919Z,4.67
2023-03-08T17:22:19.645Z,4.57
2023-03-08T17:27:42.003Z,4.10
2023-03-08T17:33:04.303Z,4.93
2023-03-08T17:38:26.997Z,4.03
2023-03-08T17:43:50.440Z,4.47
2023-03-08T17:49:14.066Z,4.67
2023-03-08T17:54:36.764Z,4.83
2023-03-08T17:59:59.072Z,3.73
2023-03-08T18:05:21.461Z,4.60
2023-03-08T18:10:44.353Z,4.80
2023-03-08T18:16:06.969Z,5.33
2023-03-08T18:21:31.012Z,5.10
2023-03-08T18:26:54.109Z,5.73
2023-03-08T18:32:16.623Z,5.10
2023-03-08T18:37:38.841Z,4.80
2023-03-08T18:43:01.579Z,3.97
2023-03-08T18:48:24.648Z,3.93
2023-03-08T18:53:47.628Z,4.70
2023-03-08T18:59:13.506Z,4.73
2023-03-08T19:04:40.722Z,5.37
2023-03-08T19:10:04.169Z,4.87
2023-03-08T19:15:26.753Z,4.73
2023-03-08T19:20:49.385Z,4.43
2023-03-08T19:26:36.880Z,6.13
2023-03-08T19:32:08.131Z,5.50
2023-03-08T19:37:31.236Z,5.50
2023-03-08T19:42:53.978Z,5.23
2023-03-08T19:48:16.745Z,4.97
2023-03-08T19:53:40.729Z,5.00
2023-03-08T19:59:03.808Z,5.03
2023-03-08T20:04:26.145Z,4.57
2023-03-08T20:09:52.713Z,4.87
2023-03-08T20:15:15.706Z,4.80
2023-03-08T20:20:38.037Z,4.23
2023-03-08T20:26:00.373Z,4.77
2023-03-08T20:31:24.118Z,4.70
2023-03-08T20:36:47.561Z,4.90
2023-03-08T20:42:12.746Z,4.80
2023-03-08T20:47:35.685Z,4.60
2023-03-08T20:52:58.501Z,4.77
2023-03-08T20:58:21.757Z,4.20
2023-03-08T21:03:45.348Z,4.30
2023-03-08T21:09:07.621Z,3.67
2023-03-08T21:14:29.982Z,4.67
2023-03-08T21:19:57.447Z,4.90
2023-03-08T21:25:19.680Z,4.70
2023-03-08T21:30:42.465Z,4.87
2023-03-08T21:36:05.312Z,5.10
2023-03-08T21:41:30.509Z,5.33
2023-03-08T21:46:53.178Z,5.97
2023-03-08T21:52:15.577Z,5.37
2023-03-08T21:57:37.765Z,5.83
2023-03-08T22:03:00.620Z,5.53
2023-03-08T22:08:25.163Z,5.63
2023-03-08T22:13:57.062Z,6.53
2023-03-08T22:19:19.416Z,6.53
2023-03-08T22:24:41.554Z,7.27
2023-03-08T22:30:10.726Z,7.40
2023-03-08T22:35:33.523Z,6.70
2023-03-08T22:40:55.994Z,7.17
2023-03-08T22:46:22.285Z,6.80
2023-03-08T22:51:44.891Z,7.77
2023-03-08T22:57:07.427Z,7.47
2023-03-08T23:02:31.276Z,7.30
2023-03-08T23:07:53.793Z,7.80
2023-03-08T23:13:31.143Z,8.90
2023-03-08T23:18:55.532Z,8.97
2023-03-08T23:24:17.852Z,9.23
2023-03-08T23:29:40.091Z,9.00
2023-03-08T23:35:02.512Z,8.83
2023-03-08T23:40:24.706Z,9.57
2023-03-08T23:45:47.123Z,10.07
2023-03-08T23:51:13.901Z,9.37
2023-03-08T23:56:38.284Z,9.07
